Flight Track Log - Related Links

Times and Time Zones

All times are in EDT time to prevent confusion due to time zone crossing. See the ASQ5115 flight status page for this flight to view local times or setup timezone preferences in your user account.

Time Position Orientation Groundspeed Altitude Reporting Facility
EDT Latitude Longitude Course Direction KTS MPH feet Rate Location/Type
Thu 11:07:48 PM 44.8472 -93.1411 235° Southwest 190 219 2,900  Level Minneapolis Center
Thu 11:08:49 PM 44.7900 -93.0939 150° Southeast 258 297 5,300 2,607 Climbing Minneapolis Center
Thu 11:09:50 PM 44.7506 -93.1833 238° Southwest 270 311 8,200 2,488 Climbing Minneapolis Center
Thu 11:10:52 PM 44.7219 -93.2975 251° West 294 338 10,400 2,195 Climbing Minneapolis Center
Thu 11:11:53 PM 44.6897 -93.4222 250° West 335 386 12,700 2,146 Climbing Minneapolis Center
Thu 11:12:55 PM 44.6531 -93.5472 248° West 346 398 14,800 2,000 Climbing Minneapolis Center
Thu 11:13:00 PM 44.5905 -93.8191 235° Southwest  Level FlightAware Approximate
Thu 11:13:56 PM 44.6150 -93.6794 248° West 361 415 16,800  Level Minneapolis Center
Thu 11:14:58 PM 44.5747 -93.8175 248° West 370 426 18,000 585 Climbing Minneapolis Center
Thu 11:15:59 PM 44.5225 -93.9922 247° West 417 480 18,000  Level Minneapolis Center
Thu 11:17:01 PM 44.4786 -94.1433 248° West 418 481 18,000  Level Minneapolis Center
Thu 11:18:03 PM 44.4336 -94.2961 248° West 424 488 18,000  Level Minneapolis Center
Thu 11:19:04 PM 44.3869 -94.4483 247° West 425 489 18,000  Level Minneapolis Center
Thu 11:20:06 PM 44.3414 -94.6017 247° West 426 490 18,000  Level Minneapolis Center
Thu 11:21:08 PM 44.2892 -94.7714 247° West 426 490 18,000  Level Minneapolis Center
Thu 11:22:09 PM 44.2425 -94.9211 247° West 425 489 18,000  Level Minneapolis Center
Thu 11:23:11 PM 44.1964 -95.0711 247° West 425 489 18,000  Level Minneapolis Center
Thu 11:24:12 PM 44.1494 -95.2219 247° West 424 488 18,000  Level Minneapolis Center
Thu 11:25:14 PM 44.1028 -95.3719 247° West 423 487 18,000  Level Minneapolis Center
Thu 11:26:15 PM 44.0561 -95.5233 247° West 423 487 18,000  Level Minneapolis Center
Thu 11:27:17 PM 44.0083 -95.6731 246° West 423 487 18,000 -242 Level Minneapolis Center
Thu 11:28:19 PM 43.9603 -95.8236 246° West 423 487 17,500 -1,707 Descending Minneapolis Center
Thu 11:29:20 PM 43.9042 -95.9983 246° West 411 473 14,500 -2,732 Descending Minneapolis Center
Thu 11:30:22 PM 43.8597 -96.1392 246° West 400 460 11,900 -2,146 Descending Minneapolis Center
Thu 11:31:23 PM 43.8164 -96.2703 245° Southwest 384 442 10,100 -1,073 Descending Minneapolis Center
Thu 11:32:25 PM 43.7836 -96.3703 246° West 321 369 9,700 -1,073 Descending Minneapolis Center
Thu 11:33:26 PM 43.7531 -96.4656 246° West 287 330 7,900 -1,756 Descending Minneapolis Center
Thu 11:34:28 PM 43.7222 -96.5617 246° West 277 319 6,100 -1,756 Descending Minneapolis Center
Thu 11:35:29 PM 43.6919 -96.6553 246° West 272 313 4,300 -1,073 Descending Minneapolis Center
Thu 11:36:31 PM 43.6636 -96.7392 245° Southwest 260 299 3,900 -585 Descending Minneapolis Center
Thu 11:37:32 PM 43.6406 -96.8017 243° Southwest 215 247 3,100 -390 Descending Minneapolis Center
Thu 11:38:34 PM 43.6756 -96.7942 North 207 238 3,100 -390 Level Minneapolis Center
Thu 11:39:35 PM 43.6319 -96.7706 159° South 161 185 2,300 -689 Descending Minneapolis Center
Thu 11:40:36 PM 43.6025 -96.7517 155° Southeast 134 154 1,700 -590 Descending Minneapolis Center
Thu 11:42:00 PM 43.5820 -96.7419 160° South  Level Estimated
Thu 11:49:00 PM 43.5820 -96.7419 160° South  Level Estimated

Login

Don't have an account? Register now (free) for customized features, flight alerts, and more!